Joseph City, Arizona
Current Conditions -  °F | °C
As of 7:56 AM on Monday 24 Nov 2014 (Local Time) from KINW Reporting Station
Clear Clear  
Wind Chill: 19°   Ceiling: Unl
Heat Index: 19°   Visibility: 10mi
Dew Point: -2°   Wind: 0mph
Humidity: 40%   Direction: NA
Pressure: 30.25"   Gusts: NA
Location:  34.96°N, 110.34°W
Report Text: KINW 241456Z AUTO 00000KT 10SM CLR M07/M19 A3025 RMK AO2 SLP277 T10721189 53009
Loading
Personal Weather Stations






























Interactive Weather Map New forecast layout! Learn more

10-Day Weather Forecast

Advertisements
Track Severe Weather on mobile